Latest Weather Observations for Mount Nowa Nowa

IDV60801

Issued at 4:35 am EST Sunday 24 August 2014 (issued every 30 minutes, with the page automatically refreshed every 10 minutes)

About weather observations | Map of weather stations | Latest weather observations for VIC | Other Formats
Station Details ID: 084144 Name: MOUNT NOWA NOWA Lat: -37.69 Lon: 148.09 Height: 350.0 m
Data from the previous 72 hours. | See also: Recent months at Mount Nowa Nowa
Date/Time
EST
Temp
°C
App
Temp
°C
Dew
Point
Rel
Hum
%
Delta-T
°C
Wind Press
QNH
hPa
Press
MSL
hPa
Rain
since 9 am
mm
Dir
 
Spd
km/h
Gust
km/h
Spd
kts
Gust
kts
24/04:30am 12.0 6.8 5.6 65 3.0 NNW 22 39 12 21 - - 0.0
24/04:00am 10.7 5.5 5.3 69 2.5 NNW 22 33 12 18 - - 0.0
24/03:30am 10.6 5.3 5.2 69 2.5 N 22 33 12 18 - - 0.0
24/03:00am 10.3 5.6 5.1 70 2.4 N 19 33 10 18 - - 0.0
24/02:30am 10.5 5.8 5.3 70 2.4 N 19 30 10 16 - - 0.0
24/02:00am 11.7 7.0 5.3 65 3.0 N 19 30 10 16 - - 0.0
24/01:30am 11.5 7.4 6.0 69 2.6 N 17 28 9 15 - - 0.0
24/01:00am 11.9 7.7 5.8 66 2.9 N 17 26 9 14 - - 0.0
24/12:30am 11.8 7.6 5.9 67 2.8 N 17 28 9 15 - - 0.0
24/12:00am 11.8 7.7 6.1 68 2.7 N 17 24 9 13 - - 0.0
 
Date/Time
EST
Temp
°C
App
Temp
°C
Dew
Point
Rel
Hum
%
Delta-T
°C
Wind Press
QNH
hPa
Press
MSL
hPa
Rain
since 9 am
mm
Dir
 
Spd
km/h
Gust
km/h
Spd
kts
Gust
kts
23/11:30pm 12.5 8.4 6.1 65 3.1 N 17 26 9 14 - - 0.0
23/11:00pm 12.5 8.4 6.1 65 3.1 N 17 28 9 15 - - 0.0
23/10:30pm 12.8 9.2 6.6 66 3.0 N 15 22 8 12 - - 0.0
23/10:00pm 12.3 9.3 7.6 73 2.3 N 13 22 7 12 - - 0.0
23/09:30pm 11.9 9.4 8.2 78 1.9 N 11 22 6 12 - - 0.0
23/09:00pm 12.1 9.8 7.6 74 2.2 N 9 19 5 10 - - 0.0
23/08:30pm 12.6 10.6 7.3 70 2.6 N 7 11 4 6 - - 0.0
23/08:00pm 13.2 11.4 7.9 70 2.7 ENE 7 11 4 6 - - 0.0
23/07:30pm 12.0 9.8 7.7 75 2.1 E 9 13 5 7 - - 0.0
23/07:00pm 11.6 9.2 7.1 74 2.2 E 9 13 5 7 - - 0.0
23/06:30pm 11.4 9.1 7.3 76 2.0 E 9 17 5 9 - - 0.0
23/06:00pm 11.7 9.3 7.2 74 2.2 E 9 13 5 7 - - 0.0
23/05:30pm 12.4 10.4 7.1 70 2.6 E 7 15 4 8 - - 0.0
23/05:00pm 13.8 12.0 7.3 65 3.2 E 6 7 3 4 - - 0.0
23/04:30pm 15.8 14.1 7.6 58 4.2 ESE 6 13 3 7 - - 0.0
23/04:00pm 16.4 15.2 8.1 58 4.3 ESE 4 9 2 5 - - 0.0
23/03:30pm 17.0 16.5 9.4 61 4.0 SE 2 7 1 4 - - 0.0
23/03:00pm 17.6 17.0 9.0 57 4.5 E 2 7 1 4 - - 0.0
23/02:30pm 17.7 16.5 8.0 53 5.0 E 4 9 2 5 - - 0.0
23/02:00pm 18.1 17.4 8.7 54 5.0 ESE 2 7 1 4 - - 0.0
23/01:30pm 17.6 16.4 7.9 53 5.0 ESE 4 9 2 5 - - 0.0
23/01:00pm 17.5 16.2 7.8 53 5.0 ESE 4 9 2 5 - - 0.0
23/12:30pm 16.7 15.3 7.1 53 4.9 E 4 7 2 4 - - 0.0
23/12:00pm 16.9 15.8 7.0 52 5.0 E 2 7 1 4 - - 0.0
23/11:30am 16.4 15.7 7.1 54 4.7 CALM 0 4 0 2 - - 0.0
23/11:00am 15.7 14.7 7.5 58 4.2 NNW 2 6 1 3 - - 0.0
23/10:30am 14.1 12.2 6.5 60 3.7 NNW 6 9 3 5 - - 0.0
23/10:00am 12.8 10.8 6.2 64 3.2 NNW 6 11 3 6 - - 0.0
23/09:30am 11.0 7.8 5.1 67 2.7 N 11 19 6 10 - - 0.0
23/09:00am 10.8 7.1 4.3 64 3.0 N 13 22 7 12 - - 0.0
23/08:30am 10.2 6.0 3.9 65 2.8 NNW 15 22 8 12 - - 0.0
23/08:00am 9.7 5.9 4.1 68 2.5 N 13 24 7 13 - - 0.0
23/07:30am 9.5 5.3 3.9 68 2.5 N 15 26 8 14 - - 0.0
23/07:00am 9.5 5.4 4.1 69 2.4 N 15 24 8 13 - - 0.0
23/06:30am 9.2 5.0 4.0 70 2.3 N 15 24 8 13 - - 0.0
23/06:00am 8.8 4.7 4.2 73 2.1 N 15 22 8 12 - - 0.0
23/05:30am 8.9 4.8 4.3 73 2.1 N 15 26 8 14 - - 0.0
23/05:00am 9.1 5.0 4.5 73 2.1 N 15 26 8 14 - - 0.0
23/04:30am 8.7 5.0 4.7 76 1.8 N 13 24 7 13 - - 0.0
23/04:00am 9.0 5.0 4.8 75 1.9 N 15 28 8 15 - - 0.0
23/03:30am 9.3 5.3 4.9 74 2.0 N 15 26 8 14 - - 0.0
23/03:00am 9.4 5.4 5.0 74 2.0 N 15 24 8 13 - - 0.0
23/02:30am 9.8 5.4 5.0 72 2.2 N 17 24 9 13 - - 0.0
23/02:00am 9.9 5.2 5.1 72 2.2 N 19 32 10 17 - - 0.0
23/01:30am 9.9 5.2 5.3 73 2.1 N 19 32 10 17 - - 0.0
23/01:00am 10.1 5.5 5.5 73 2.1 N 19 32 10 17 - - 0.0
23/12:30am 10.1 5.3 5.7 74 2.1 N 20 33 11 18 - - 0.0
23/12:00am 10.1 5.9 5.5 73 2.1 N 17 33 9 18 - - 0.0
 
Date/Time
EST
Temp
°C
App
Temp
°C
Dew
Point
Rel
Hum
%
Delta-T
°C
Wind Press
QNH
hPa
Press
MSL
hPa
Rain
since 9 am
mm
Dir
 
Spd
km/h
Gust
km/h
Spd
kts
Gust
kts
22/11:30pm 10.1 5.9 5.7 74 2.1 N 17 32 9 17 - - 0.0
22/11:00pm 10.5 5.9 5.7 72 2.3 N 19 30 10 16 - - 0.0
22/10:30pm 10.7 7.7 5.9 72 2.3 N 11 19 6 10 - - 0.0
22/10:00pm 10.8 8.6 7.7 81 1.5 NNW 9 17 5 9 - - 0.0
22/09:30pm 10.7 9.2 9.1 90 0.8 NNW 7 13 4 7 - - 0.0
22/09:00pm 11.1 10.4 8.5 84 1.3 NE 2 6 1 3 - - 0.0
22/08:30pm 11.4 10.2 7.9 79 1.7 E 4 6 2 3 - - 0.0
22/08:00pm 11.2 10.0 7.9 80 1.6 ENE 4 7 2 4 - - 0.0
22/07:30pm 10.6 9.1 8.5 87 1.0 E 6 9 3 5 - - 0.0
22/07:00pm 10.9 9.5 8.8 87 1.1 E 6 9 3 5 - - 0.0
22/06:30pm 11.0 9.5 9.3 89 0.9 E 7 9 4 5 - - 0.0
22/06:00pm 11.3 10.0 9.2 87 1.1 E 6 9 3 5 - - 0.0
22/05:30pm 12.1 11.3 9.7 85 1.2 ESE 4 6 2 3 - - 0.0
22/05:00pm 12.9 11.7 9.7 81 1.7 ESE 6 7 3 4 - - 0.0
22/04:30pm 13.8 12.7 10.0 78 2.0 ESE 6 7 3 4 - - 0.0
22/04:00pm 14.7 14.0 10.1 74 2.4 SE 4 9 2 5 - - 0.0
22/03:30pm 15.4 14.7 10.2 71 2.8 ESE 4 11 2 6 - - 0.0
22/03:00pm 14.6 13.7 9.4 71 2.7 ESE 4 9 2 5 - - 0.0
22/02:30pm 14.9 14.2 8.6 66 3.2 ESE 2 9 1 5 - - 0.0
22/02:00pm 16.3 15.2 8.5 60 4.0 ESE 4 13 2 7 - - 0.0
22/01:30pm 15.9 14.8 8.4 61 3.9 E 4 11 2 6 - - 0.0
22/01:00pm 16.4 15.5 7.6 56 4.5 ENE 2 6 1 3 - - 0.0
22/12:30pm 15.5 13.4 6.0 53 4.7 ENE 6 13 3 7 - - 0.0
22/12:00pm 15.4 13.3 5.9 53 4.7 NNE 6 13 3 7 - - 0.0
22/11:30am 14.7 13.4 7.5 62 3.6 ENE 4 6 2 3 - - 0.0
22/11:00am 13.9 12.6 7.7 66 3.1 ESE 4 11 2 6 - - 0.0
22/10:30am 12.6 11.1 6.6 67 2.9 E 4 9 2 5 - - 0.0
22/10:00am 12.3 10.3 6.4 67 2.9 E 6 9 3 5 - - 0.0
22/09:30am 11.3 9.1 6.4 72 2.4 ENE 7 15 4 8 - - 0.0
22/09:00am 10.3 8.0 5.9 74 2.1 ENE 7 17 4 9 - - 0.0
22/08:30am 9.7 7.4 5.9 77 1.8 E 7 15 4 8 - - 0.0
22/08:00am 8.5 6.4 5.6 82 1.3 E 6 11 3 6 - - 0.0
22/07:30am 8.3 5.9 5.1 80 1.5 NNE 7 17 4 9 - - 0.0
22/07:00am 8.3 5.1 4.9 79 1.5 N 11 24 6 13 - - 0.0
22/06:30am 8.4 5.2 5.2 80 1.5 N 11 24 6 13 - - 0.0
22/06:00am 7.9 5.4 5.0 82 1.3 N 7 17 4 9 - - 0.0
22/05:30am 7.3 5.0 5.0 85 1.0 ENE 6 15 3 8 - - 0.0
22/05:00am 7.3 5.0 5.0 85 1.0 ENE 6 13 3 7 - - 0.0
22/04:30am 7.8 5.6 5.1 83 1.2 E 6 15 3 8 - - 0.0
22/04:00am 7.9 5.4 5.0 82 1.3 ENE 7 15 4 8 - - 0.0
22/03:30am 8.0 5.6 5.1 82 1.3 ENE 7 15 4 8 - - 0.0
22/03:00am 8.2 5.8 5.1 81 1.4 E 7 11 4 6 - - 0.0
22/02:30am 8.3 5.5 5.2 81 1.4 E 9 15 5 8 - - 0.0
22/02:00am 8.0 4.9 5.5 84 1.1 E 11 17 6 9 - - 0.0
22/01:30am 8.4 5.7 5.5 82 1.3 E 9 15 5 8 - - 0.0
22/01:00am 9.0 6.3 5.4 78 1.7 E 9 15 5 8 - - 0.0
22/12:30am 8.9 6.6 5.5 79 1.6 E 7 13 4 7 - - 0.0
22/12:00am 9.0 6.3 5.7 80 1.5 E 9 15 5 8 - - 0.0
 
Date/Time
EST
Temp
°C
App
Temp
°C
Dew
Point
Rel
Hum
%
Delta-T
°C
Wind Press
QNH
hPa
Press
MSL
hPa
Rain
since 9 am
mm
Dir
 
Spd
km/h
Gust
km/h
Spd
kts
Gust
kts
21/11:30pm 8.7 6.5 6.0 83 1.3 E 7 13 4 7 - - 0.0
21/11:00pm 8.8 6.6 6.1 83 1.3 E 7 13 4 7 - - 0.0
21/10:30pm 9.1 6.2 6.4 83 1.3 E 11 15 6 8 - - 0.0
21/10:00pm 9.3 6.1 6.7 84 1.2 E 13 20 7 11 - - 0.0
21/09:30pm 8.6 5.5 7.2 91 0.7 E 13 20 7 11 - - 0.0
21/09:00pm 8.4 5.0 7.8 96 0.3 E 15 26 8 14 - - 0.0
21/08:30pm 8.4 5.4 7.8 96 0.3 E 13 19 7 10 - - 0.0
21/08:00pm 8.6 6.0 7.8 95 0.4 E 11 17 6 9 - - 0.0
21/07:30pm 8.7 6.1 7.9 95 0.4 E 11 19 6 10 - - 0.0
21/07:00pm 9.0 6.1 8.1 94 0.4 E 13 19 7 10 - - 0.0
21/06:30pm 9.2 7.0 8.0 92 0.6 E 9 15 5 8 - - 0.0
21/06:00pm 9.9 7.8 8.3 90 0.8 E 9 15 5 8 - - 0.0
21/05:30pm 10.9 9.5 8.8 87 1.1 ESE 6 11 3 6 - - 0.0
21/05:00pm 11.8 10.4 9.0 83 1.4 ESE 6 9 3 5 - - 0.0
21/04:30pm 12.9 11.6 9.2 78 1.9 E 6 11 3 6 - - 0.0
21/04:00pm 13.7 12.5 9.7 77 2.1 ESE 6 13 3 7 - - 0.0
21/03:30pm 14.0 12.8 9.4 74 2.4 ESE 6 19 3 10 - - 0.0
21/03:00pm 13.9 12.5 8.9 72 2.6 ESE 6 15 3 8 - - 0.0
21/02:30pm 14.4 13.1 9.2 71 2.7 E 6 15 3 8 - - 0.0
21/02:00pm 14.2 12.8 9.0 71 2.7 SE 6 13 3 7 - - 0.0
21/01:30pm 14.4 12.9 8.4 67 3.1 E 6 13 3 7 - - 0.0
21/01:00pm 14.2 12.6 8.2 67 3.1 E 6 15 3 8 - - 0.0
21/12:30pm 13.4 11.5 6.5 63 3.4 E 6 13 3 7 - - 0.0
21/12:00pm 12.9 10.8 6.5 65 3.1 E 7 13 4 7 - - 0.0
21/11:30am 13.0 11.4 6.4 64 3.2 E 4 9 2 5 - - 0.0
21/11:00am 12.0 9.6 5.2 63 3.2 E 7 13 4 7 - - 0.0
21/10:30am 11.2 9.1 5.7 69 2.6 E 6 9 3 5 - - 0.0
21/10:00am 10.2 8.5 5.8 74 2.1 E 4 6 2 3 - - 0.0
21/09:30am 9.0 7.2 5.2 77 1.7 NE 4 6 2 3 - - 0.0
21/09:00am 7.9 5.5 4.5 79 1.5 ENE 6 7 3 4 - - 0.0
21/08:30am 7.4 5.0 4.2 80 1.4 ENE 6 11 3 6 - - 0.0
21/08:00am 7.1 4.7 4.1 81 1.3 ENE 6 11 3 6 - - 0.0
21/07:30am 6.6 4.1 3.8 82 1.2 NE 6 11 3 6 - - 0.0
21/07:00am 6.5 4.0 3.7 82 1.2 ENE 6 9 3 5 - - 0.0
21/06:30am 6.8 4.2 4.3 84 1.1 E 7 13 4 7 - - 0.0
21/06:00am 6.8 4.1 3.9 82 1.3 ENE 7 13 4 7 - - 0.0
21/05:30am 6.7 4.0 3.9 82 1.2 ENE 7 9 4 5 - - 0.0
21/05:00am 6.6 3.9 3.9 83 1.2 ENE 7 13 4 7 - - 0.0

Other Formats:

Comma delimited format used in spreadsheet applications
http://www.bom.gov.au/fwo/IDV60801/IDV60801.94930.axf

JavaScript Object Notation format (JSON) in row-major order
http://www.bom.gov.au/fwo/IDV60801/IDV60801.94930.json